In Rescue
 
Open Full Screen Window  High Contrast Mode
Wind Gusting 00 knots
07
March 19, 2019 3:45 PM PDT
Weather Information
Wind Direction
  340 °
Wind Speed
  07 kt (8 mph)
Wind Gust
  00 kt (0 mph)
Altimeter
29.81 in
Visibility
9 SM
Temperature
20° C
68° F
Dewpoint
08° C
46° F
Humidity
46%
1hr Rain Fall
00.00 in.
24hr Rain Fall
00.00 in.
Sky Condition
Clear
VFR

METAR KSQL 192245Z AUTO 34007KT 9SM CLR 20/08 A2981 RMK AO2

FAA Disclaimer: The data displayed is for advisory purposes only and is not to be used for flight planning or operations.